Terminal Aerodrome Forecast
Issued by NWS

Home | Current Version | Previous Version | Text Only | Print | Product List | Glossary On
Versions: 1 2 3 4 5 6 7 8 9 10 11 12 13 14 15 16 17
000
FTUS41 KBGM 110917 AAB
TAFELM
TAF AMD
KELM 110917Z 1109/1206 24007KT P6SM OVC040
      TEMPO 1109/1111 4SM -SN OVC030
     FM111100 29007KT P6SM BKN040
     FM112100 VRB04KT P6SM BKN045
     FM120500 17007KT 2SM -SN OVC025=

USA.gov is the U.S. government's official web portal to all federal, state and local government web resources and services.